createdAt,value
2022-12-29T00:02:31.253Z,94.59
2022-12-29T00:07:32.747Z,96.35
2022-12-29T00:12:52.633Z,98.19
2022-12-29T00:17:53.947Z,100.00
2022-12-29T00:23:13.900Z,100.00
2022-12-29T00:28:34.048Z,100.00
2022-12-29T00:33:53.862Z,100.00
2022-12-29T00:39:22.113Z,100.00
2022-12-29T00:44:23.685Z,100.00
2022-12-29T00:49:31.204Z,100.00
2022-12-29T00:54:35.825Z,100.00
2022-12-29T00:59:37.957Z,100.00
2022-12-29T01:04:39.342Z,100.00
2022-12-29T01:09:59.401Z,100.00
2022-12-29T01:15:00.764Z,100.00
2022-12-29T01:20:02.290Z,100.00
2022-12-29T01:25:04.137Z,97.96
2022-12-29T01:30:05.797Z,99.58
2022-12-29T01:35:07.406Z,98.11
2022-12-29T01:40:09.086Z,94.95
2022-12-29T01:45:12.578Z,95.69
2022-12-29T01:50:26.175Z,92.10
2022-12-29T01:55:30.531Z,85.43
2022-12-29T02:00:31.880Z,85.77
2022-12-29T02:05:38.696Z,87.79
2022-12-29T02:10:41.463Z,86.84
2022-12-29T02:15:48.685Z,88.20
2022-12-29T02:20:56.327Z,92.31
2022-12-29T02:26:16.436Z,93.93
2022-12-29T02:31:38.660Z,93.38
2022-12-29T02:36:51.307Z,96.20
2022-12-29T02:42:00.462Z,98.14
2022-12-29T02:47:10.720Z,100.00
2022-12-29T02:52:16.958Z,100.00
2022-12-29T02:57:21.132Z,100.00
2022-12-29T03:02:22.621Z,100.00
2022-12-29T03:07:28.861Z,97.88
2022-12-29T03:12:59.752Z,98.06
2022-12-29T03:18:21.311Z,98.50
2022-12-29T03:23:24.620Z,97.00
2022-12-29T03:28:31.357Z,98.44
2022-12-29T03:33:33.262Z,99.99
2022-12-29T03:38:37.093Z,99.92
2022-12-29T03:43:38.674Z,100.00
2022-12-29T03:48:40.000Z,100.00
2022-12-29T03:53:41.498Z,100.00
2022-12-29T03:58:42.808Z,100.00
2022-12-29T04:03:44.189Z,100.00
2022-12-29T04:08:45.545Z,100.00
2022-12-29T04:13:46.879Z,100.00
2022-12-29T04:18:48.243Z,100.00
2022-12-29T04:23:49.568Z,96.67
2022-12-29T04:28:50.888Z,98.94
2022-12-29T04:33:52.229Z,96.11
2022-12-29T04:38:53.596Z,94.07
2022-12-29T04:43:54.967Z,96.91
2022-12-29T04:48:56.292Z,93.28
2022-12-29T04:53:57.634Z,93.10
2022-12-29T04:58:58.961Z,96.68
2022-12-29T05:04:00.421Z,100.00
2022-12-29T05:09:01.828Z,100.00
2022-12-29T05:14:03.268Z,100.00
2022-12-29T05:19:04.572Z,100.00
2022-12-29T05:24:06.031Z,100.00
2022-12-29T05:29:07.575Z,100.00
2022-12-29T05:34:11.478Z,100.00
2022-12-29T05:39:12.787Z,100.00
2022-12-29T05:44:14.274Z,100.00
2022-12-29T05:49:15.629Z,100.00
2022-12-29T05:54:17.107Z,100.00
2022-12-29T05:59:18.425Z,100.00
2022-12-29T06:04:19.770Z,100.00
2022-12-29T06:09:21.111Z,100.00
2022-12-29T06:14:22.458Z,100.00
2022-12-29T06:19:23.867Z,100.00
2022-12-29T06:24:25.183Z,100.00
2022-12-29T06:29:26.574Z,100.00
2022-12-29T06:34:27.915Z,100.00
2022-12-29T06:39:29.370Z,100.00
2022-12-29T06:44:30.674Z,100.00
2022-12-29T06:49:31.997Z,100.00
2022-12-29T06:54:33.363Z,100.00
2022-12-29T06:59:34.708Z,100.00
2022-12-29T07:04:36.022Z,100.00
2022-12-29T07:09:37.315Z,100.00
2022-12-29T07:14:42.923Z,100.00
2022-12-29T07:19:45.703Z,100.00
2022-12-29T07:24:47.023Z,100.00
2022-12-29T07:29:48.407Z,100.00
2022-12-29T07:34:49.724Z,100.00
2022-12-29T07:39:51.035Z,98.64
2022-12-29T07:44:52.433Z,98.63
2022-12-29T07:49:53.769Z,100.00
2022-12-29T07:54:55.162Z,97.04
2022-12-29T07:59:56.491Z,97.04
2022-12-29T08:04:57.833Z,96.90
2022-12-29T08:09:59.166Z,97.40
2022-12-29T08:15:00.518Z,96.74
2022-12-29T08:20:01.950Z,97.83
2022-12-29T08:25:03.356Z,97.40
2022-12-29T08:30:04.954Z,96.62
2022-12-29T08:35:08.293Z,93.66
2022-12-29T08:40:09.926Z,91.21
2022-12-29T08:45:11.343Z,90.46
2022-12-29T08:50:12.710Z,87.65
2022-12-29T08:55:14.041Z,85.32
2022-12-29T09:00:16.067Z,85.49
2022-12-29T09:05:17.573Z,84.87
2022-12-29T09:10:19.052Z,85.65
2022-12-29T09:15:20.510Z,85.03
2022-12-29T09:20:22.397Z,84.55
2022-12-29T09:25:25.297Z,83.19
2022-12-29T09:30:26.647Z,85.02
2022-12-29T09:35:28.026Z,79.53
2022-12-29T09:40:31.015Z,81.33
2022-12-29T09:45:44.629Z,79.53
2022-12-29T09:50:49.961Z,78.30
2022-12-29T09:55:52.958Z,77.69
2022-12-29T10:01:01.183Z,77.34
2022-12-29T10:06:11.645Z,78.68
2022-12-29T10:11:32.918Z,78.70
2022-12-29T10:16:34.243Z,77.71
2022-12-29T10:21:35.614Z,75.88
2022-12-29T10:26:39.794Z,73.95
2022-12-29T10:31:45.838Z,73.96
2022-12-29T10:36:49.782Z,71.47
2022-12-29T10:41:58.656Z,70.80
2022-12-29T10:47:03.397Z,64.98
2022-12-29T10:52:05.325Z,63.51
2022-12-29T10:57:11.954Z,64.64
2022-12-29T11:02:32.247Z,66.66
2022-12-29T11:07:33.793Z,66.45
2022-12-29T11:12:36.442Z,66.16
2022-12-29T11:17:48.055Z,67.56
2022-12-29T11:22:49.362Z,66.01
2022-12-29T11:27:59.632Z,66.13
2022-12-29T11:33:03.874Z,66.45
2022-12-29T11:38:06.169Z,67.38
2022-12-29T11:43:07.625Z,66.66
2022-12-29T11:48:11.048Z,66.89
2022-12-29T11:53:18.370Z,65.05
2022-12-29T11:58:19.881Z,65.98
2022-12-29T12:03:24.272Z,65.51
2022-12-29T12:08:34.603Z,64.96
2022-12-29T12:13:39.377Z,63.47
2022-12-29T12:18:56.215Z,61.76
2022-12-29T12:23:57.501Z,62.64
2022-12-29T12:29:04.946Z,62.86
2022-12-29T12:34:10.347Z,64.96
2022-12-29T12:39:20.866Z,64.14
2022-12-29T12:44:24.972Z,62.49
2022-12-29T12:49:26.340Z,62.71
2022-12-29T12:54:42.977Z,63.28
2022-12-29T12:59:53.167Z,63.10
2022-12-29T13:05:03.949Z,64.51
2022-12-29T13:10:17.556Z,63.68
2022-12-29T13:15:36.086Z,65.15
2022-12-29T13:20:40.508Z,64.33
2022-12-29T13:25:48.461Z,64.20
2022-12-29T13:30:55.718Z,65.72
2022-12-29T13:36:01.933Z,67.15
2022-12-29T13:41:06.645Z,67.92
2022-12-29T13:46:10.773Z,67.00
2022-12-29T13:51:12.579Z,66.26
2022-12-29T13:56:21.453Z,65.86
2022-12-29T14:01:32.755Z,63.34
2022-12-29T14:06:38.032Z,62.76
2022-12-29T14:11:40.758Z,60.52
2022-12-29T14:16:44.093Z,61.28
2022-12-29T14:21:56.232Z,60.28
2022-12-29T14:26:57.641Z,62.74
2022-12-29T14:31:59.010Z,63.60
2022-12-29T14:37:01.583Z,62.66
2022-12-29T14:42:06.077Z,64.97
2022-12-29T14:47:09.089Z,65.67
2022-12-29T14:52:13.785Z,66.69
2022-12-29T14:57:20.040Z,65.42
2022-12-29T15:02:23.129Z,66.17
2022-12-29T15:07:24.990Z,68.27
2022-12-29T15:12:58.667Z,66.85
2022-12-29T15:18:12.925Z,68.56
2022-12-29T15:23:17.260Z,67.31
2022-12-29T15:28:21.120Z,68.43
2022-12-29T15:33:23.922Z,69.69
2022-12-29T15:38:33.320Z,70.68
2022-12-29T15:43:47.459Z,69.42
2022-12-29T15:48:49.099Z,70.56
2022-12-29T15:53:52.062Z,70.53
2022-12-29T15:58:53.398Z,71.36
2022-12-29T16:03:55.112Z,73.12
2022-12-29T16:09:04.768Z,73.68
2022-12-29T16:14:13.412Z,74.37
2022-12-29T16:19:18.719Z,75.48
2022-12-29T16:24:21.883Z,77.67
2022-12-29T16:29:23.304Z,77.50
2022-12-29T16:34:26.297Z,80.93
2022-12-29T16:39:30.065Z,81.54
2022-12-29T16:44:32.062Z,81.74
2022-12-29T16:49:35.052Z,79.44
2022-12-29T16:54:37.483Z,79.16
2022-12-29T16:59:40.720Z,76.61
2022-12-29T17:04:42.087Z,76.35
2022-12-29T17:09:43.407Z,75.93
2022-12-29T17:14:58.683Z,77.02
2022-12-29T17:20:03.965Z,78.55
2022-12-29T17:25:05.449Z,80.92
2022-12-29T17:30:17.478Z,81.55
2022-12-29T17:35:19.825Z,83.12
2022-12-29T17:40:32.560Z,84.05
2022-12-29T17:45:33.939Z,86.45
2022-12-29T17:50:36.200Z,85.59
2022-12-29T17:55:38.729Z,83.86
2022-12-29T18:00:40.327Z,85.43
2022-12-29T18:05:41.889Z,88.20
2022-12-29T18:10:43.506Z,87.91
2022-12-29T18:15:44.853Z,84.93
2022-12-29T18:20:46.761Z,84.89
2022-12-29T18:25:51.973Z,86.06
2022-12-29T18:30:53.914Z,85.84
2022-12-29T18:35:59.462Z,86.15
2022-12-29T18:41:00.797Z,87.12
2022-12-29T18:46:02.155Z,87.50
2022-12-29T18:51:03.575Z,89.25
2022-12-29T18:56:05.028Z,85.58
2022-12-29T19:01:06.752Z,86.74
2022-12-29T19:06:08.120Z,88.10
2022-12-29T19:11:09.443Z,87.57
2022-12-29T19:16:18.629Z,89.13
2022-12-29T19:21:21.332Z,88.41
2022-12-29T19:26:30.308Z,87.43
2022-12-29T19:31:31.788Z,87.12
2022-12-29T19:36:33.264Z,86.35
2022-12-29T19:41:34.660Z,84.17
2022-12-29T19:46:36.149Z,81.06
2022-12-29T19:51:37.531Z,79.66
2022-12-29T19:56:42.859Z,79.14
2022-12-29T20:01:44.324Z,80.24
2022-12-29T20:06:45.858Z,82.67
2022-12-29T20:11:47.169Z,83.34
2022-12-29T20:17:09.557Z,83.86
2022-12-29T20:22:10.383Z,83.67
2022-12-29T20:27:12.554Z,83.81
2022-12-29T20:32:19.376Z,83.71
2022-12-29T20:37:21.675Z,81.77
2022-12-29T20:42:23.026Z,79.29
2022-12-29T20:47:24.344Z,79.73
2022-12-29T20:52:25.651Z,82.02
2022-12-29T20:57:27.024Z,82.86
2022-12-29T21:02:28.513Z,82.94
2022-12-29T21:07:30.001Z,84.46
2022-12-29T21:12:31.331Z,85.03
2022-12-29T21:17:32.704Z,84.89
2022-12-29T21:22:34.104Z,84.47
2022-12-29T21:27:35.480Z,85.74
2022-12-29T21:32:36.813Z,86.12
2022-12-29T21:37:38.219Z,86.76
2022-12-29T21:42:39.542Z,88.33
2022-12-29T21:47:59.693Z,87.41
2022-12-29T21:53:01.018Z,88.41
2022-12-29T21:58:21.077Z,87.75
2022-12-29T22:03:41.123Z,88.09
2022-12-29T22:09:00.986Z,88.05
2022-12-29T22:14:02.760Z,89.63
2022-12-29T22:19:04.226Z,91.55
2022-12-29T22:24:05.754Z,90.63
2022-12-29T22:29:07.077Z,90.67
2022-12-29T22:34:08.558Z,91.39
2022-12-29T22:39:10.564Z,93.78
2022-12-29T22:44:11.915Z,95.99
2022-12-29T22:49:13.320Z,96.91
2022-12-29T22:54:14.695Z,98.02
2022-12-29T22:59:16.681Z,99.11
2022-12-29T23:09:39.606Z,100.00
2022-12-29T23:14:40.994Z,100.00
2022-12-29T23:19:42.401Z,100.00
2022-12-29T23:24:43.737Z,100.00
2022-12-29T23:29:45.063Z,100.00
2022-12-29T23:34:46.401Z,100.00
2022-12-29T23:39:47.717Z,100.00
2022-12-29T23:44:49.110Z,100.00
2022-12-29T23:49:50.482Z,100.00
2022-12-29T23:54:51.876Z,100.00
2022-12-29T23:59:53.204Z,100.00
